createdAt,value
2022-12-17T00:02:37.682Z,100342.00
2022-12-17T00:05:24.011Z,100348.03
2022-12-17T00:08:15.199Z,100355.63
2022-12-17T00:11:00.959Z,100354.69
2022-12-17T00:13:46.655Z,100347.56
2022-12-17T00:16:33.608Z,100348.84
2022-12-17T00:19:19.348Z,100349.31
2022-12-17T00:22:05.035Z,100347.56
2022-12-17T00:24:50.864Z,100353.59
2022-12-17T00:27:37.457Z,100350.75
2022-12-17T00:30:23.375Z,100352.47
2022-12-17T00:33:11.469Z,100355.66
2022-12-17T00:35:56.985Z,100354.03
2022-12-17T00:38:42.675Z,100351.69
2022-12-17T00:41:28.473Z,100348.22
2022-12-17T00:44:14.216Z,100337.47
2022-12-17T00:46:59.596Z,100336.03
2022-12-17T00:49:46.896Z,100336.97
2022-12-17T00:52:32.301Z,100336.34
2022-12-17T00:55:17.846Z,100342.84
2022-12-17T00:58:03.498Z,100323.25
2022-12-17T01:00:49.253Z,100335.41
2022-12-17T01:03:35.199Z,100336.19
2022-12-17T01:06:22.569Z,100344.56
2022-12-17T01:09:10.736Z,100341.88
2022-12-17T01:11:56.522Z,100338.41
2022-12-17T01:14:42.762Z,100342.19
2022-12-17T01:17:37.087Z,100343.47
2022-12-17T01:20:23.425Z,100338.56
2022-12-17T01:23:10.768Z,100345.03
2022-12-17T01:25:56.473Z,100337.13
2022-12-17T01:28:43.098Z,100338.25
2022-12-17T01:31:34.674Z,100333.00
2022-12-17T01:34:21.152Z,100345.97
2022-12-17T01:37:06.871Z,100352.47
2022-12-17T01:39:53.997Z,100339.81
2022-12-17T01:42:39.541Z,100340.75
2022-12-17T01:45:34.608Z,100344.25
2022-12-17T01:48:23.641Z,100339.66
2022-12-17T01:51:13.341Z,100337.31
2022-12-17T01:54:02.892Z,100327.81
2022-12-17T01:56:51.505Z,100326.88
2022-12-17T01:59:39.508Z,100330.19
2022-12-17T02:02:25.270Z,100333.97
2022-12-17T02:05:10.791Z,100333.47
2022-12-17T02:08:09.441Z,100330.63
2022-12-17T02:11:04.579Z,100324.44
2022-12-17T02:13:55.862Z,100321.16
2022-12-17T02:16:48.032Z,100320.88
2022-12-17T02:19:47.991Z,100316.75
2022-12-17T02:22:52.632Z,100312.97
2022-12-17T02:25:49.284Z,100306.63
2022-12-17T02:28:36.816Z,100312.16
2022-12-17T02:31:23.445Z,100313.38
2022-12-17T02:34:08.912Z,100320.78
2022-12-17T02:36:51.153Z,100311.09
2022-12-17T02:39:37.184Z,100306.94
2022-12-17T02:42:24.342Z,100312.13
2022-12-17T02:45:12.246Z,100311.00
2022-12-17T02:47:58.183Z,100310.63
2022-12-17T02:50:43.680Z,100311.69
2022-12-17T02:53:29.114Z,100309.09
2022-12-17T02:56:14.857Z,100313.13
2022-12-17T02:59:14.965Z,100307.34
2022-12-17T03:02:02.039Z,100313.16
2022-12-17T03:04:47.974Z,100320.06
2022-12-17T03:07:33.444Z,100323.16
2022-12-17T03:10:24.480Z,100324.03
2022-12-17T03:13:10.075Z,100324.25
2022-12-17T03:15:55.886Z,100328.53
2022-12-17T03:18:42.811Z,100335.50
2022-12-17T03:21:28.306Z,100328.41
2022-12-17T03:24:14.110Z,100322.69
2022-12-17T03:26:59.800Z,100327.09
2022-12-17T03:29:45.633Z,100320.50
2022-12-17T03:32:31.385Z,100331.81
2022-12-17T03:35:18.074Z,100320.00
2022-12-17T03:38:03.453Z,100332.22
2022-12-17T03:40:49.046Z,100341.78
2022-12-17T03:43:32.402Z,100335.72
2022-12-17T03:46:17.995Z,100337.22
2022-12-17T03:49:03.554Z,100329.38
2022-12-17T03:51:50.628Z,100326.59
2022-12-17T03:54:36.030Z,100324.88
2022-12-17T03:57:21.637Z,100330.75
2022-12-17T04:00:15.590Z,100326.88
2022-12-17T04:03:01.205Z,100325.34
2022-12-17T04:05:46.870Z,100330.28
2022-12-17T04:08:33.650Z,100331.88
2022-12-17T04:11:19.099Z,100337.75
2022-12-17T04:14:04.892Z,100339.00
2022-12-17T04:16:51.596Z,100336.81
2022-12-17T04:19:45.423Z,100330.78
2022-12-17T04:22:30.918Z,100332.38
2022-12-17T04:25:33.076Z,100333.81
2022-12-17T04:28:18.621Z,100329.84
2022-12-17T04:31:04.506Z,100336.66
2022-12-17T04:33:50.111Z,100326.22
2022-12-17T04:36:35.795Z,100329.22
2022-12-17T04:39:21.724Z,100330.50
2022-12-17T04:42:08.776Z,100327.34
2022-12-17T04:44:54.181Z,100324.97
2022-12-17T04:47:39.856Z,100328.59
2022-12-17T04:50:25.874Z,100323.53
2022-12-17T04:53:18.814Z,100324.94
2022-12-17T04:56:04.552Z,100315.97
2022-12-17T04:58:51.539Z,100321.03
2022-12-17T05:01:37.098Z,100316.13
2022-12-17T05:04:22.949Z,100320.09
2022-12-17T05:07:08.601Z,100308.53
2022-12-17T05:09:54.028Z,100313.44
2022-12-17T05:12:39.595Z,100314.03
2022-12-17T05:15:27.282Z,100306.00
2022-12-17T05:18:12.790Z,100308.84
2022-12-17T05:20:58.195Z,100318.00
2022-12-17T05:23:43.970Z,100317.56
2022-12-17T05:26:37.205Z,100315.16
2022-12-17T05:29:22.652Z,100312.97
2022-12-17T05:32:09.812Z,100304.28
2022-12-17T05:34:55.564Z,100307.91
2022-12-17T05:37:43.052Z,100310.59
2022-12-17T05:40:29.594Z,100313.91
2022-12-17T05:43:15.809Z,100318.94
2022-12-17T05:46:03.989Z,100317.22
2022-12-17T05:48:51.742Z,100317.06
2022-12-17T05:51:39.083Z,100318.50
2022-12-17T05:54:25.761Z,100321.16
2022-12-17T05:57:11.553Z,100313.91
2022-12-17T05:59:57.389Z,100314.84
2022-12-17T06:02:43.466Z,100322.72
2022-12-17T06:05:30.798Z,100315.94
2022-12-17T06:08:21.991Z,100312.16
2022-12-17T06:11:07.698Z,100329.06
2022-12-17T06:13:53.511Z,100331.59
2022-12-17T06:16:54.186Z,100322.91
2022-12-17T06:19:39.659Z,100326.09
2022-12-17T06:22:26.887Z,100327.03
2022-12-17T06:25:12.396Z,100326.41
2022-12-17T06:27:57.793Z,100334.94
2022-12-17T06:30:48.909Z,100329.72
2022-12-17T06:33:33.942Z,100327.34
2022-12-17T06:36:31.021Z,100329.97
2022-12-17T06:39:18.373Z,100320.44
2022-12-17T06:42:04.971Z,100325.75
2022-12-17T06:44:50.967Z,100321.38
2022-12-17T06:47:36.769Z,100316.41
2022-12-17T06:50:23.033Z,100321.47
2022-12-17T06:53:18.014Z,100320.00
2022-12-17T06:56:04.683Z,100323.81
2022-12-17T06:58:50.422Z,100325.19
2022-12-17T07:01:36.161Z,100329.91
2022-12-17T07:04:22.088Z,100334.28
2022-12-17T07:07:07.560Z,100329.03
2022-12-17T07:09:53.240Z,100322.88
2022-12-17T07:12:41.270Z,100335.22
2022-12-17T07:15:27.399Z,100331.72
2022-12-17T07:18:14.313Z,100342.56
2022-12-17T07:21:00.217Z,100337.72
2022-12-17T07:23:46.156Z,100348.75
2022-12-17T07:26:31.889Z,100348.63
2022-12-17T07:29:18.789Z,100347.72
2022-12-17T07:32:04.898Z,100344.03
2022-12-17T07:34:50.484Z,100342.94
2022-12-17T07:37:35.913Z,100331.22
2022-12-17T07:40:21.263Z,100336.94
2022-12-17T07:43:06.731Z,100337.31
2022-12-17T07:45:53.783Z,100329.47
2022-12-17T07:48:39.624Z,100338.28
2022-12-17T07:51:25.066Z,100335.94
2022-12-17T07:54:10.294Z,100332.38
2022-12-17T07:57:07.593Z,100339.59
2022-12-17T07:59:53.015Z,100342.97
2022-12-17T08:02:40.363Z,100340.16
2022-12-17T08:05:26.435Z,100341.50
2022-12-17T08:08:12.366Z,100341.06
2022-12-17T08:10:57.854Z,100339.72
2022-12-17T08:13:43.317Z,100342.47
2022-12-17T08:16:28.989Z,100341.47
2022-12-17T08:19:15.850Z,100329.09
2022-12-17T08:22:01.625Z,100332.81
2022-12-17T08:24:47.380Z,100336.63
2022-12-17T08:27:32.971Z,100335.16
2022-12-17T08:30:18.720Z,100328.16
2022-12-17T08:33:04.546Z,100334.91
2022-12-17T08:35:51.338Z,100333.22
2022-12-17T08:38:36.835Z,100336.47
2022-12-17T08:41:22.258Z,100323.84
2022-12-17T08:44:07.685Z,100326.09
2022-12-17T08:46:53.404Z,100319.19
2022-12-17T08:49:50.309Z,100323.03
2022-12-17T08:52:37.615Z,100322.75
2022-12-17T08:55:24.104Z,100312.41
2022-12-17T08:58:12.997Z,100309.78
2022-12-17T09:00:58.835Z,100304.97
2022-12-17T09:03:43.653Z,100307.69
2022-12-17T09:06:29.152Z,100313.56
2022-12-17T09:09:16.006Z,100301.03
2022-12-17T09:12:02.098Z,100297.50
2022-12-17T09:14:47.996Z,100296.81
2022-12-17T09:17:33.377Z,100286.81
2022-12-17T09:20:19.196Z,100289.03
2022-12-17T09:23:04.821Z,100291.84
2022-12-17T09:25:56.567Z,100303.22
2022-12-17T09:28:43.783Z,100299.50
2022-12-17T09:31:35.369Z,100300.66
2022-12-17T09:34:22.864Z,100287.59
2022-12-17T09:37:08.621Z,100279.91
2022-12-17T09:39:54.019Z,100286.88
2022-12-17T09:42:51.790Z,100280.94
2022-12-17T09:45:47.739Z,100279.19
2022-12-17T09:48:40.785Z,100285.31
2022-12-17T09:51:39.696Z,100285.06
2022-12-17T09:54:43.610Z,100277.88
2022-12-17T09:57:32.404Z,100277.19
2022-12-17T10:00:22.334Z,100281.47
2022-12-17T10:03:10.804Z,100272.28
2022-12-17T10:05:56.541Z,100269.03
2022-12-17T10:08:42.132Z,100276.81
2022-12-17T10:11:38.217Z,100293.66
2022-12-17T10:14:34.086Z,100289.81
2022-12-17T10:17:21.284Z,100288.56
2022-12-17T10:20:10.937Z,100283.56
2022-12-17T10:23:04.254Z,100285.34
2022-12-17T10:25:51.137Z,100279.09
2022-12-17T10:28:39.754Z,100278.09
2022-12-17T10:31:28.796Z,100276.25
2022-12-17T10:34:16.476Z,100275.16
2022-12-17T10:37:07.631Z,100279.22
2022-12-17T10:39:53.787Z,100279.22
2022-12-17T10:42:42.097Z,100272.72
2022-12-17T10:45:41.931Z,100255.66
2022-12-17T10:48:39.255Z,100258.97
2022-12-17T10:51:38.215Z,100275.00
2022-12-17T10:54:29.201Z,100301.94
2022-12-17T10:57:18.062Z,100296.66
2022-12-17T11:00:03.948Z,100296.34
2022-12-17T11:02:46.356Z,100307.81
2022-12-17T11:05:33.394Z,100319.00
2022-12-17T11:08:21.183Z,100305.53
2022-12-17T11:11:08.293Z,100298.75
2022-12-17T11:14:00.327Z,100295.69
2022-12-17T11:16:51.971Z,100297.94
2022-12-17T11:19:50.822Z,100293.13
2022-12-17T11:22:50.122Z,100286.22
2022-12-17T11:26:01.065Z,100299.34
2022-12-17T11:28:49.109Z,100288.22
2022-12-17T11:31:51.737Z,100281.22
2022-12-17T11:34:59.269Z,100271.38
2022-12-17T11:37:53.022Z,100291.84
2022-12-17T11:40:46.555Z,100277.06
2022-12-17T11:43:41.815Z,100300.06
2022-12-17T11:46:50.103Z,100305.56
2022-12-17T11:49:45.747Z,100313.97
2022-12-17T11:52:41.472Z,100318.19
2022-12-17T11:55:36.454Z,100316.75
2022-12-17T11:58:25.471Z,100307.69
2022-12-17T12:01:22.126Z,100309.75
2022-12-17T12:04:17.640Z,100317.63
2022-12-17T12:07:15.617Z,100324.59
2022-12-17T12:10:09.204Z,100328.16
2022-12-17T12:13:05.611Z,100329.81
2022-12-17T12:16:03.251Z,100333.66
2022-12-17T12:19:01.062Z,100334.50
2022-12-17T12:21:57.327Z,100345.78
2022-12-17T12:25:02.172Z,100350.19
2022-12-17T12:27:54.808Z,100357.50
2022-12-17T12:30:50.553Z,100347.59
2022-12-17T12:33:46.670Z,100348.16
2022-12-17T12:36:37.592Z,100342.88
2022-12-17T12:39:25.544Z,100353.72
2022-12-17T12:42:18.001Z,100357.34
2022-12-17T12:45:12.357Z,100365.56
2022-12-17T12:48:06.204Z,100370.13
2022-12-17T12:51:04.238Z,100376.31
2022-12-17T12:53:51.210Z,100378.97
2022-12-17T12:56:48.210Z,100390.41
2022-12-17T12:59:45.342Z,100391.09
2022-12-17T13:02:50.487Z,100379.84
2022-12-17T13:05:34.421Z,100386.22
2022-12-17T13:08:04.650Z,100392.69
2022-12-17T13:10:35.106Z,100403.19
2022-12-17T13:13:14.634Z,100412.88
2022-12-17T13:15:47.434Z,100414.44
2022-12-17T13:18:25.862Z,100417.50
2022-12-17T13:21:02.861Z,100419.69
2022-12-17T13:23:34.409Z,100426.34
2022-12-17T13:26:18.140Z,100430.31
2022-12-17T13:29:02.036Z,100430.25
2022-12-17T13:31:41.213Z,100441.28
2022-12-17T13:34:17.313Z,100453.81
2022-12-17T13:36:53.810Z,100455.63
2022-12-17T13:39:34.075Z,100451.97
2022-12-17T13:42:04.797Z,100465.16
2022-12-17T13:44:40.290Z,100478.19
2022-12-17T13:47:22.754Z,100476.34
2022-12-17T13:50:31.617Z,100479.13
2022-12-17T13:52:43.678Z,100491.94
2022-12-17T13:55:21.144Z,100493.84
2022-12-17T13:57:51.788Z,100490.94
2022-12-17T14:00:23.151Z,100509.38
2022-12-17T14:02:52.196Z,100506.03
2022-12-17T14:05:27.711Z,100517.44
2022-12-17T14:07:58.809Z,100516.47
2022-12-17T14:10:27.270Z,100539.13
2022-12-17T14:13:05.712Z,100531.63
2022-12-17T14:15:34.367Z,100538.91
2022-12-17T14:18:03.757Z,100539.88
2022-12-17T14:20:34.723Z,100539.66
2022-12-17T14:23:05.379Z,100545.09
2022-12-17T14:25:38.066Z,100537.75
2022-12-17T14:28:21.642Z,100545.63
2022-12-17T14:31:24.830Z,100538.44
2022-12-17T14:33:39.592Z,100538.19
2022-12-17T14:36:10.075Z,100536.50
2022-12-17T14:38:39.234Z,100526.03
2022-12-17T14:41:27.143Z,100520.84
2022-12-17T14:44:02.230Z,100542.44
2022-12-17T14:46:32.521Z,100541.22
2022-12-17T14:49:02.971Z,100546.16
2022-12-17T14:51:34.374Z,100538.47
2022-12-17T14:54:22.503Z,100531.72
2022-12-17T14:56:51.283Z,100536.19
2022-12-17T14:59:32.498Z,100520.91
2022-12-17T15:02:03.761Z,100527.44
2022-12-17T15:04:33.268Z,100519.88
2022-12-17T15:07:01.433Z,100515.94
2022-12-17T15:09:29.538Z,100515.13
2022-12-17T15:11:57.771Z,100526.22
2022-12-17T15:14:27.327Z,100522.47
2022-12-17T15:16:57.024Z,100529.28
2022-12-17T15:19:25.309Z,100535.81
2022-12-17T15:21:53.497Z,100530.09
2022-12-17T15:24:22.485Z,100530.94
2022-12-17T15:26:51.023Z,100526.06
2022-12-17T15:29:19.343Z,100534.44
2022-12-17T15:31:49.163Z,100533.13
2022-12-17T15:34:17.317Z,100541.81
2022-12-17T15:36:45.418Z,100537.19
2022-12-17T15:39:13.838Z,100535.75
2022-12-17T15:41:59.784Z,100531.28
2022-12-17T15:44:28.368Z,100530.34
2022-12-17T15:46:57.966Z,100523.91
2022-12-17T15:49:26.093Z,100522.22
2022-12-17T15:51:54.257Z,100522.38
2022-12-17T15:54:22.460Z,100532.06
2022-12-17T15:56:54.861Z,100528.50
2022-12-17T15:59:23.483Z,100532.94
2022-12-17T16:01:51.884Z,100541.25
2022-12-17T16:04:25.237Z,100541.94
2022-12-17T16:06:54.017Z,100540.81
2022-12-17T16:09:24.644Z,100532.84
2022-12-17T16:11:55.598Z,100541.09
2022-12-17T16:14:24.294Z,100540.59
2022-12-17T16:16:52.899Z,100538.91
2022-12-17T16:19:23.695Z,100550.16
2022-12-17T16:21:52.115Z,100549.03
2022-12-17T16:24:21.212Z,100551.53
2022-12-17T16:26:49.465Z,100561.84
2022-12-17T16:29:17.725Z,100559.69
2022-12-17T16:31:46.262Z,100565.94
2022-12-17T16:34:15.687Z,100570.88
2022-12-17T16:36:45.339Z,100569.81
2022-12-17T16:39:17.509Z,100565.38
2022-12-17T16:41:46.030Z,100578.69
2022-12-17T16:44:14.426Z,100575.09
2022-12-17T16:46:44.284Z,100587.03
2022-12-17T16:49:15.580Z,100593.22
2022-12-17T16:51:46.283Z,100596.56
2022-12-17T16:54:17.032Z,100596.25
2022-12-17T16:56:46.798Z,100588.75
2022-12-17T16:59:16.520Z,100587.31
2022-12-17T17:01:46.696Z,100592.06
2022-12-17T17:04:16.502Z,100597.13
2022-12-17T17:06:48.399Z,100599.78
2022-12-17T17:09:17.611Z,100608.16
2022-12-17T17:11:51.176Z,100614.66
2022-12-17T17:14:21.433Z,100616.41
2022-12-17T17:16:49.748Z,100619.84
2022-12-17T17:19:18.501Z,100623.59
2022-12-17T17:21:52.826Z,100630.13
2022-12-17T17:24:24.166Z,100635.00
2022-12-17T17:26:53.373Z,100635.78
2022-12-17T17:29:21.554Z,100634.69
2022-12-17T17:34:38.263Z,100631.19
2022-12-17T17:37:08.131Z,100634.88
2022-12-17T17:39:36.306Z,100644.69
2022-12-17T17:42:04.818Z,100641.84
2022-12-17T17:44:33.301Z,100645.91
2022-12-17T17:47:01.688Z,100649.59
2022-12-17T17:49:30.095Z,100652.13
2022-12-17T17:52:13.836Z,100637.94
2022-12-17T17:54:43.466Z,100647.38
2022-12-17T17:57:12.059Z,100647.16
2022-12-17T17:59:40.761Z,100642.25
2022-12-17T18:02:10.899Z,100653.81
2022-12-17T18:04:40.087Z,100655.97
2022-12-17T18:07:24.724Z,100648.53
2022-12-17T18:09:55.132Z,100654.63
2022-12-17T18:12:41.483Z,100665.56
2022-12-17T18:15:15.382Z,100663.06
2022-12-17T18:17:45.179Z,100677.13
2022-12-17T18:20:14.063Z,100675.75
2022-12-17T18:22:42.322Z,100671.38
2022-12-17T18:25:11.861Z,100671.69
2022-12-17T18:27:40.162Z,100670.66
2022-12-17T18:30:09.458Z,100673.78
2022-12-17T18:32:37.560Z,100672.88
2022-12-17T18:35:06.443Z,100679.91
2022-12-17T18:37:34.668Z,100680.53
2022-12-17T18:40:03.061Z,100685.56
2022-12-17T18:42:50.331Z,100681.63
2022-12-17T18:45:18.583Z,100691.28
2022-12-17T18:47:46.882Z,100699.69
2022-12-17T18:50:15.163Z,100683.97
2022-12-17T18:52:43.364Z,100693.44
2022-12-17T18:55:34.999Z,100690.41
2022-12-17T18:58:04.719Z,100684.97
2022-12-17T19:00:33.022Z,100701.63
2022-12-17T19:03:05.836Z,100683.03
2022-12-17T19:05:34.405Z,100687.78
2022-12-17T19:08:02.767Z,100682.38
2022-12-17T19:10:30.898Z,100693.28
2022-12-17T19:12:59.633Z,100708.22
2022-12-17T19:15:29.347Z,100727.75
2022-12-17T19:17:57.663Z,100726.97
2022-12-17T19:20:25.764Z,100745.25
2022-12-17T19:22:55.094Z,100736.41
2022-12-17T19:25:23.616Z,100746.25
2022-12-17T19:27:51.910Z,100749.91
2022-12-17T19:30:23.337Z,100755.97
2022-12-17T19:32:53.814Z,100747.13
2022-12-17T19:35:22.155Z,100747.03
2022-12-17T19:37:53.234Z,100747.66
2022-12-17T19:40:21.772Z,100752.59
2022-12-17T19:42:50.706Z,100752.09
2022-12-17T19:45:19.118Z,100752.09
2022-12-17T19:47:47.588Z,100731.31
2022-12-17T19:50:23.177Z,100724.66
2022-12-17T19:52:51.451Z,100724.88
2022-12-17T19:55:21.564Z,100718.19
2022-12-17T19:57:49.920Z,100709.63
2022-12-17T20:00:19.521Z,100731.19
2022-12-17T20:02:47.797Z,100742.63
2022-12-17T20:05:16.101Z,100756.28
2022-12-17T20:07:45.700Z,100751.84
2022-12-17T20:10:13.869Z,100761.47
2022-12-17T20:12:42.055Z,100773.19
2022-12-17T20:15:10.833Z,100775.56
2022-12-17T20:17:38.973Z,100779.03
2022-12-17T20:20:08.275Z,100782.84
2022-12-17T20:22:36.669Z,100782.84
2022-12-17T20:25:09.698Z,100790.72
2022-12-17T20:27:37.877Z,100786.09
2022-12-17T20:30:07.525Z,100801.56
2022-12-17T20:32:35.766Z,100798.56
2022-12-17T20:35:04.007Z,100806.22
2022-12-17T20:37:32.183Z,100819.47
2022-12-17T20:40:00.411Z,100834.22
2022-12-17T20:42:31.108Z,100831.22
2022-12-17T20:44:59.204Z,100823.41
2022-12-17T20:47:27.597Z,100838.72
2022-12-17T20:49:55.786Z,100849.19
2022-12-17T20:52:23.971Z,100845.34
2022-12-17T20:54:52.789Z,100848.34
2022-12-17T20:57:21.001Z,100851.09
2022-12-17T20:59:51.786Z,100854.41
2022-12-17T21:02:20.051Z,100852.81
2022-12-17T21:04:49.733Z,100845.66
2022-12-17T21:07:18.114Z,100844.69
2022-12-17T21:09:46.316Z,100847.22
2022-12-17T21:12:14.545Z,100849.72
2022-12-17T21:14:42.819Z,100863.44
2022-12-17T21:17:14.620Z,100859.19
2022-12-17T21:19:42.956Z,100880.22
2022-12-17T21:22:11.195Z,100871.34
2022-12-17T21:24:39.536Z,100856.81
2022-12-17T21:27:14.281Z,100885.25
2022-12-17T21:29:42.927Z,100873.66
2022-12-17T21:32:12.448Z,100874.13
2022-12-17T21:34:41.007Z,100879.13
2022-12-17T21:37:11.430Z,100884.19
2022-12-17T21:39:39.733Z,100886.03
2022-12-17T21:42:25.555Z,100880.22
2022-12-17T21:44:53.683Z,100883.03
2022-12-17T21:47:23.953Z,100874.13
2022-12-17T21:49:52.159Z,100867.97
2022-12-17T21:52:20.306Z,100864.97
2022-12-17T21:54:48.628Z,100856.59
2022-12-17T21:57:16.791Z,100860.72
2022-12-17T21:59:44.947Z,100859.41
2022-12-17T22:02:13.156Z,100868.44
2022-12-17T22:04:43.115Z,100873.28
2022-12-17T22:07:12.225Z,100873.13
2022-12-17T22:09:53.731Z,100885.91
2022-12-17T22:12:46.645Z,100875.47
2022-12-17T22:15:14.731Z,100881.56
2022-12-17T22:17:43.651Z,100880.78
2022-12-17T22:20:13.764Z,100868.22
2022-12-17T22:22:42.130Z,100891.09
2022-12-17T22:25:11.511Z,100869.91
2022-12-17T22:27:41.007Z,100865.63
2022-12-17T22:30:31.360Z,100871.81
2022-12-17T22:33:02.551Z,100882.38
2022-12-17T22:36:51.226Z,100888.66
2022-12-17T22:41:22.248Z,100902.56
2022-12-17T22:44:42.605Z,100909.84
2022-12-17T22:44:43.455Z,100918.81
2022-12-17T22:47:09.862Z,100918.88
2022-12-17T22:49:40.963Z,100912.63
2022-12-17T22:52:13.455Z,100914.41
2022-12-17T22:54:43.795Z,100918.00
2022-12-17T22:57:35.102Z,100927.53
2022-12-17T23:00:00.132Z,100934.91
2022-12-17T23:02:28.309Z,100945.94
2022-12-17T23:04:56.458Z,100956.69
2022-12-17T23:07:31.564Z,100960.25
2022-12-17T23:10:00.213Z,100971.91
2022-12-17T23:12:46.101Z,100984.94
2022-12-17T23:15:14.333Z,100981.66
2022-12-17T23:17:42.535Z,100989.81
2022-12-17T23:20:12.044Z,100993.75
2022-12-17T23:22:41.882Z,100990.50
2022-12-17T23:25:11.385Z,101006.16
2022-12-17T23:27:39.760Z,101004.47
2022-12-17T23:30:09.650Z,101012.84
2022-12-17T23:32:38.808Z,101003.28
2022-12-17T23:35:08.388Z,101022.72
2022-12-17T23:37:40.198Z,101027.50
2022-12-17T23:40:12.303Z,101027.31
2022-12-17T23:42:40.940Z,101017.16
2022-12-17T23:45:11.549Z,101018.78
2022-12-17T23:47:40.580Z,101016.78
2022-12-17T23:50:11.714Z,101030.84
2022-12-17T23:52:40.405Z,101047.34
2022-12-17T23:55:11.678Z,101057.41
2022-12-17T23:57:40.581Z,101061.28
